Sheridan, WY (82801)

7:32 AM MST on December 06, 2016 (GMT -0700)
South Sheridan | | Change Station

Elev 3770 ft 44.79 °N, 106.95 °W | Updated 39 seconds ago

Partly Cloudy
Partly Cloudy
7.3 °F
Feels Like 7 °F
N
0.2
Wind Variable Wind from West
Gusts 2.5 mph

Today
High -- | Low -- °F
--% Chance of Precip.
Yesterday
High -- | Low -- °F
Precip. -- in
Pressure 30.25 in
Visibility 10.0 miles
Clouds Few 2000 ft
Windchill 7 °F
Dew Point -4 °F
Humidity 60%
Rainfall 0.00 in
Snow Depth Not available.
7:31 AM 4:27 PM
Waxing Crescent, 42% visible
METAR KSHR 061353Z AUTO 30009KT 10SM FEW020 M17/M19 A3001 RMK AO2 SNE12 SLP243 P0000 T11671189
Pressure 30.25 in
Visibility 10.0 miles
Clouds Few 2000 ft
Windchill 7 °F
Dew Point -4 °F
Humidity 60%
Rainfall 0.00 in
Snow Depth Not available.
7:31 AM 4:27 PM
Waxing Crescent, 42% visible
METAR KSHR 061353Z AUTO 30009KT 10SM FEW020 M17/M19 A3001 RMK AO2 SNE12 SLP243 P0000 T11671189

10-Day Weather Forecast

Almanac

Astronomy

Dec. 06, 2016 Rise Set
Actual Time
Civil Twilight
Nautical Twilight
Astronomical Twilight
Moon
Length of Visible Light
Length of Day
Tomorrow will be .
, % of the Moon is Illuminated

Today's Extremes

State Highs State Lows

Community

WunderPhotos

Upload Photos

1,955,949 photos uploaded!

WunderBlog® & News

Nearby

Air Quality

  Air Quality AQ Index Pollutant
Not available.

Snow Depth

Station Depth Elevation

Earthquake Activity

City Distance Mag. Time & Date
Minimum magnitude displayed is 2.5.

Coastal Water Temperatures

Place Temperature

Stations

Nearby Weather Stations

Station Location Temp. Windchill Dew Point Humidity Wind Precip. Elev Updated Type
                   

Watches & Warnings

There are currently no watches in effect.